sensor_id;sensor_type;location;lat;lon;timestamp;P1;durP1;ratioP1;P2;durP2;ratioP2
39020;SDS011;25188;51.958;5.842;2023-07-31T00:00:05;3.40;;;0.73;;
39020;SDS011;25188;51.958;5.842;2023-07-31T00:02:33;2.25;;;0.90;;
39020;SDS011;25188;51.958;5.842;2023-07-31T00:05:00;2.17;;;0.80;;
39020;SDS011;25188;51.958;5.842;2023-07-31T00:07:26;1.63;;;0.80;;
39020;SDS011;25188;51.958;5.842;2023-07-31T00:09:51;1.70;;;0.60;;
39020;SDS011;25188;51.958;5.842;2023-07-31T00:12:18;1.30;;;0.60;;
39020;SDS011;25188;51.958;5.842;2023-07-31T00:14:44;1.70;;;0.57;;
39020;SDS011;25188;51.958;5.842;2023-07-31T00:17:10;1.45;;;0.52;;
39020;SDS011;25188;51.958;5.842;2023-07-31T00:19:36;4.13;;;0.60;;
39020;SDS011;25188;51.958;5.842;2023-07-31T00:22:02;1.25;;;0.60;;
39020;SDS011;25188;51.958;5.842;2023-07-31T00:24:28;1.48;;;0.50;;
39020;SDS011;25188;51.958;5.842;2023-07-31T00:26:53;2.63;;;0.80;;
39020;SDS011;25188;51.958;5.842;2023-07-31T00:29:19;1.50;;;0.60;;
39020;SDS011;25188;51.958;5.842;2023-07-31T00:31:45;1.77;;;0.50;;
39020;SDS011;25188;51.958;5.842;2023-07-31T00:34:10;1.83;;;0.77;;
39020;SDS011;25188;51.958;5.842;2023-07-31T00:36:36;2.55;;;0.80;;
39020;SDS011;25188;51.958;5.842;2023-07-31T00:39:01;3.65;;;1.13;;
39020;SDS011;25188;51.958;5.842;2023-07-31T00:41:27;4.22;;;1.60;;
39020;SDS011;25188;51.958;5.842;2023-07-31T00:43:53;4.47;;;1.35;;
39020;SDS011;25188;51.958;5.842;2023-07-31T00:46:18;5.22;;;2.08;;
39020;SDS011;25188;51.958;5.842;2023-07-31T00:48:45;7.95;;;3.08;;
39020;SDS011;25188;51.958;5.842;2023-07-31T00:51:11;8.55;;;3.83;;
39020;SDS011;25188;51.958;5.842;2023-07-31T00:53:36;9.30;;;3.85;;
39020;SDS011;25188;51.958;5.842;2023-07-31T00:56:03;13.60;;;4.13;;
39020;SDS011;25188;51.958;5.842;2023-07-31T00:58:29;21.55;;;7.50;;
39020;SDS011;25188;51.958;5.842;2023-07-31T01:00:55;20.65;;;8.27;;
39020;SDS011;25188;51.958;5.842;2023-07-31T01:03:20;29.92;;;9.57;;
39020;SDS011;25188;51.958;5.842;2023-07-31T01:08:27;29.02;;;10.18;;
39020;SDS011;25188;51.958;5.842;2023-07-31T01:10:56;30.98;;;11.40;;
39020;SDS011;25188;51.958;5.842;2023-07-31T01:13:26;38.30;;;13.55;;
39020;SDS011;25188;51.958;5.842;2023-07-31T01:15:52;26.13;;;10.60;;
39020;SDS011;25188;51.958;5.842;2023-07-31T01:18:18;26.55;;;10.25;;
39020;SDS011;25188;51.958;5.842;2023-07-31T01:20:44;24.35;;;11.23;;
39020;SDS011;25188;51.958;5.842;2023-07-31T01:26:27;28.13;;;9.55;;
39020;SDS011;25188;51.958;5.842;2023-07-31T01:31:24;32.33;;;10.63;;
39020;SDS011;25188;51.958;5.842;2023-07-31T01:33:51;27.58;;;10.73;;
39020;SDS011;25188;51.958;5.842;2023-07-31T01:36:19;25.08;;;9.80;;
39020;SDS011;25188;51.958;5.842;2023-07-31T01:38:45;26.80;;;10.57;;
39020;SDS011;25188;51.958;5.842;2023-07-31T01:41:10;27.65;;;9.82;;
39020;SDS011;25188;51.958;5.842;2023-07-31T01:43:36;36.78;;;10.90;;
39020;SDS011;25188;51.958;5.842;2023-07-31T01:46:02;24.40;;;11.18;;
39020;SDS011;25188;51.958;5.842;2023-07-31T01:48:27;23.30;;;9.40;;
39020;SDS011;25188;51.958;5.842;2023-07-31T01:50:53;30.50;;;10.30;;
39020;SDS011;25188;51.958;5.842;2023-07-31T01:53:18;24.63;;;10.05;;
39020;SDS011;25188;51.958;5.842;2023-07-31T01:55:44;25.95;;;10.40;;
39020;SDS011;25188;51.958;5.842;2023-07-31T01:58:10;26.25;;;10.20;;
39020;SDS011;25188;51.958;5.842;2023-07-31T02:00:35;23.40;;;9.95;;
39020;SDS011;25188;51.958;5.842;2023-07-31T02:03:01;25.80;;;9.38;;
39020;SDS011;25188;51.958;5.842;2023-07-31T02:05:26;28.00;;;9.68;;
39020;SDS011;25188;51.958;5.842;2023-07-31T02:07:52;25.83;;;9.63;;
39020;SDS011;25188;51.958;5.842;2023-07-31T02:10:18;26.50;;;9.38;;
39020;SDS011;25188;51.958;5.842;2023-07-31T02:12:43;18.75;;;7.28;;
39020;SDS011;25188;51.958;5.842;2023-07-31T02:15:09;28.15;;;9.07;;
39020;SDS011;25188;51.958;5.842;2023-07-31T02:17:35;20.42;;;8.82;;
39020;SDS011;25188;51.958;5.842;2023-07-31T02:20:00;25.73;;;8.35;;
39020;SDS011;25188;51.958;5.842;2023-07-31T02:22:26;27.13;;;8.98;;
39020;SDS011;25188;51.958;5.842;2023-07-31T02:24:51;24.25;;;8.40;;
39020;SDS011;25188;51.958;5.842;2023-07-31T02:27:17;19.25;;;7.78;;
39020;SDS011;25188;51.958;5.842;2023-07-31T02:29:43;22.45;;;7.82;;
39020;SDS011;25188;51.958;5.842;2023-07-31T02:32:09;29.23;;;8.52;;
39020;SDS011;25188;51.958;5.842;2023-07-31T02:34:35;21.05;;;8.18;;
39020;SDS011;25188;51.958;5.842;2023-07-31T02:37:01;24.25;;;7.95;;
39020;SDS011;25188;51.958;5.842;2023-07-31T02:39:26;21.02;;;7.97;;
39020;SDS011;25188;51.958;5.842;2023-07-31T02:41:52;23.33;;;8.85;;
39020;SDS011;25188;51.958;5.842;2023-07-31T02:44:17;23.30;;;8.20;;
39020;SDS011;25188;51.958;5.842;2023-07-31T02:46:43;28.85;;;10.02;;
39020;SDS011;25188;51.958;5.842;2023-07-31T02:49:08;19.92;;;7.72;;
39020;SDS011;25188;51.958;5.842;2023-07-31T02:51:34;27.40;;;8.38;;
39020;SDS011;25188;51.958;5.842;2023-07-31T02:54:00;23.83;;;7.75;;
39020;SDS011;25188;51.958;5.842;2023-07-31T02:56:25;22.77;;;8.35;;
39020;SDS011;25188;51.958;5.842;2023-07-31T02:58:51;27.55;;;9.00;;
39020;SDS011;25188;51.958;5.842;2023-07-31T03:01:16;21.38;;;7.68;;
39020;SDS011;25188;51.958;5.842;2023-07-31T03:03:42;29.42;;;8.93;;
39020;SDS011;25188;51.958;5.842;2023-07-31T03:06:07;24.27;;;8.75;;
39020;SDS011;25188;51.958;5.842;2023-07-31T03:08:33;25.70;;;8.98;;
39020;SDS011;25188;51.958;5.842;2023-07-31T03:10:59;26.60;;;8.65;;
39020;SDS011;25188;51.958;5.842;2023-07-31T03:13:24;24.17;;;8.68;;
39020;SDS011;25188;51.958;5.842;2023-07-31T03:15:50;26.13;;;8.07;;
39020;SDS011;25188;51.958;5.842;2023-07-31T03:18:16;25.15;;;8.35;;
39020;SDS011;25188;51.958;5.842;2023-07-31T03:20:42;27.23;;;9.57;;
39020;SDS011;25188;51.958;5.842;2023-07-31T03:23:09;21.98;;;7.90;;
39020;SDS011;25188;51.958;5.842;2023-07-31T03:25:34;23.02;;;8.63;;
39020;SDS011;25188;51.958;5.842;2023-07-31T03:28:00;27.48;;;8.55;;
39020;SDS011;25188;51.958;5.842;2023-07-31T03:30:26;22.33;;;6.97;;
39020;SDS011;25188;51.958;5.842;2023-07-31T03:32:52;23.05;;;7.82;;
39020;SDS011;25188;51.958;5.842;2023-07-31T03:35:17;18.85;;;6.63;;
39020;SDS011;25188;51.958;5.842;2023-07-31T03:37:43;18.70;;;7.13;;
39020;SDS011;25188;51.958;5.842;2023-07-31T03:40:09;19.45;;;6.68;;
39020;SDS011;25188;51.958;5.842;2023-07-31T03:42:35;17.73;;;6.30;;
39020;SDS011;25188;51.958;5.842;2023-07-31T03:45:00;15.85;;;6.05;;
39020;SDS011;25188;51.958;5.842;2023-07-31T03:47:26;19.60;;;6.25;;
39020;SDS011;25188;51.958;5.842;2023-07-31T03:49:51;22.75;;;7.13;;
39020;SDS011;25188;51.958;5.842;2023-07-31T03:52:17;19.67;;;6.70;;
39020;SDS011;25188;51.958;5.842;2023-07-31T03:54:43;21.85;;;6.05;;
39020;SDS011;25188;51.958;5.842;2023-07-31T03:57:09;19.20;;;6.40;;
39020;SDS011;25188;51.958;5.842;2023-07-31T03:59:36;14.00;;;5.65;;
39020;SDS011;25188;51.958;5.842;2023-07-31T04:02:04;22.73;;;7.15;;
39020;SDS011;25188;51.958;5.842;2023-07-31T04:04:30;19.33;;;7.07;;
39020;SDS011;25188;51.958;5.842;2023-07-31T04:06:55;18.20;;;6.30;;
39020;SDS011;25188;51.958;5.842;2023-07-31T04:09:21;20.05;;;6.50;;
39020;SDS011;25188;51.958;5.842;2023-07-31T04:11:46;17.63;;;6.63;;
39020;SDS011;25188;51.958;5.842;2023-07-31T04:14:12;20.17;;;8.02;;
39020;SDS011;25188;51.958;5.842;2023-07-31T04:16:38;18.33;;;6.18;;
39020;SDS011;25188;51.958;5.842;2023-07-31T04:19:03;13.30;;;5.53;;
39020;SDS011;25188;51.958;5.842;2023-07-31T04:21:29;15.55;;;5.95;;
39020;SDS011;25188;51.958;5.842;2023-07-31T04:23:54;18.55;;;6.47;;
39020;SDS011;25188;51.958;5.842;2023-07-31T04:26:21;15.93;;;5.65;;
39020;SDS011;25188;51.958;5.842;2023-07-31T04:28:47;19.98;;;7.38;;
39020;SDS011;25188;51.958;5.842;2023-07-31T04:31:12;19.83;;;6.50;;
39020;SDS011;25188;51.958;5.842;2023-07-31T04:33:38;19.80;;;6.10;;
39020;SDS011;25188;51.958;5.842;2023-07-31T04:36:04;17.15;;;5.70;;
39020;SDS011;25188;51.958;5.842;2023-07-31T04:38:30;15.90;;;6.47;;
39020;SDS011;25188;51.958;5.842;2023-07-31T04:40:55;15.05;;;6.85;;
39020;SDS011;25188;51.958;5.842;2023-07-31T04:43:21;19.42;;;6.05;;
39020;SDS011;25188;51.958;5.842;2023-07-31T04:45:47;14.73;;;5.97;;
39020;SDS011;25188;51.958;5.842;2023-07-31T04:48:13;18.65;;;7.00;;
39020;SDS011;25188;51.958;5.842;2023-07-31T04:50:39;19.80;;;7.18;;
39020;SDS011;25188;51.958;5.842;2023-07-31T04:53:05;14.88;;;5.57;;
39020;SDS011;25188;51.958;5.842;2023-07-31T04:55:30;13.45;;;6.35;;
39020;SDS011;25188;51.958;5.842;2023-07-31T04:57:57;12.10;;;5.00;;
39020;SDS011;25188;51.958;5.842;2023-07-31T05:00:23;21.15;;;5.95;;
39020;SDS011;25188;51.958;5.842;2023-07-31T05:02:49;17.20;;;6.05;;
39020;SDS011;25188;51.958;5.842;2023-07-31T05:05:15;15.50;;;6.13;;
39020;SDS011;25188;51.958;5.842;2023-07-31T05:07:40;12.93;;;5.15;;
39020;SDS011;25188;51.958;5.842;2023-07-31T05:10:06;19.02;;;6.05;;
39020;SDS011;25188;51.958;5.842;2023-07-31T05:12:32;16.30;;;6.20;;
39020;SDS011;25188;51.958;5.842;2023-07-31T05:14:57;19.15;;;7.07;;
39020;SDS011;25188;51.958;5.842;2023-07-31T05:17:23;17.27;;;6.20;;
39020;SDS011;25188;51.958;5.842;2023-07-31T05:19:49;18.20;;;4.97;;
39020;SDS011;25188;51.958;5.842;2023-07-31T05:22:14;13.27;;;4.75;;
39020;SDS011;25188;51.958;5.842;2023-07-31T05:24:40;15.10;;;5.38;;
39020;SDS011;25188;51.958;5.842;2023-07-31T05:27:05;19.05;;;7.03;;
39020;SDS011;25188;51.958;5.842;2023-07-31T05:29:31;15.13;;;5.15;;
39020;SDS011;25188;51.958;5.842;2023-07-31T05:31:57;14.73;;;5.43;;
39020;SDS011;25188;51.958;5.842;2023-07-31T05:34:22;15.70;;;5.85;;
39020;SDS011;25188;51.958;5.842;2023-07-31T05:36:48;16.80;;;4.90;;
39020;SDS011;25188;51.958;5.842;2023-07-31T05:39:14;15.98;;;5.07;;
39020;SDS011;25188;51.958;5.842;2023-07-31T05:41:39;11.45;;;5.32;;
39020;SDS011;25188;51.958;5.842;2023-07-31T05:44:05;14.73;;;5.88;;
39020;SDS011;25188;51.958;5.842;2023-07-31T05:46:30;13.73;;;4.43;;
39020;SDS011;25188;51.958;5.842;2023-07-31T05:48:56;15.43;;;5.90;;
39020;SDS011;25188;51.958;5.842;2023-07-31T05:51:22;16.63;;;5.75;;
39020;SDS011;25188;51.958;5.842;2023-07-31T05:53:47;13.45;;;5.15;;
39020;SDS011;25188;51.958;5.842;2023-07-31T05:56:13;12.68;;;4.68;;
39020;SDS011;25188;51.958;5.842;2023-07-31T05:58:39;14.20;;;4.88;;
39020;SDS011;25188;51.958;5.842;2023-07-31T06:01:04;19.02;;;6.25;;
39020;SDS011;25188;51.958;5.842;2023-07-31T06:03:30;19.23;;;6.53;;
39020;SDS011;25188;51.958;5.842;2023-07-31T06:05:55;14.43;;;6.00;;
39020;SDS011;25188;51.958;5.842;2023-07-31T06:08:21;13.73;;;5.38;;
39020;SDS011;25188;51.958;5.842;2023-07-31T06:10:47;12.93;;;4.28;;
39020;SDS011;25188;51.958;5.842;2023-07-31T06:13:12;13.43;;;4.20;;
39020;SDS011;25188;51.958;5.842;2023-07-31T06:15:38;10.90;;;4.68;;
39020;SDS011;25188;51.958;5.842;2023-07-31T06:18:03;18.50;;;5.40;;
39020;SDS011;25188;51.958;5.842;2023-07-31T06:20:32;15.18;;;5.55;;
39020;SDS011;25188;51.958;5.842;2023-07-31T06:22:59;14.13;;;5.32;;
39020;SDS011;25188;51.958;5.842;2023-07-31T06:25:24;13.30;;;4.80;;
39020;SDS011;25188;51.958;5.842;2023-07-31T06:27:50;15.07;;;4.97;;
39020;SDS011;25188;51.958;5.842;2023-07-31T06:30:16;12.68;;;4.78;;
39020;SDS011;25188;51.958;5.842;2023-07-31T06:32:42;14.05;;;4.30;;
39020;SDS011;25188;51.958;5.842;2023-07-31T06:35:08;12.75;;;4.97;;
39020;SDS011;25188;51.958;5.842;2023-07-31T06:37:34;12.73;;;4.75;;
39020;SDS011;25188;51.958;5.842;2023-07-31T06:39:59;13.48;;;5.07;;
39020;SDS011;25188;51.958;5.842;2023-07-31T06:42:25;10.32;;;4.65;;
39020;SDS011;25188;51.958;5.842;2023-07-31T06:44:50;11.30;;;4.70;;
39020;SDS011;25188;51.958;5.842;2023-07-31T06:47:16;12.85;;;5.05;;
39020;SDS011;25188;51.958;5.842;2023-07-31T06:49:42;11.07;;;4.30;;
39020;SDS011;25188;51.958;5.842;2023-07-31T06:52:07;11.23;;;4.30;;
39020;SDS011;25188;51.958;5.842;2023-07-31T06:54:33;8.93;;;3.33;;
39020;SDS011;25188;51.958;5.842;2023-07-31T06:56:58;10.20;;;4.32;;
39020;SDS011;25188;51.958;5.842;2023-07-31T06:59:24;9.65;;;3.97;;
39020;SDS011;25188;51.958;5.842;2023-07-31T07:01:50;9.15;;;2.97;;
39020;SDS011;25188;51.958;5.842;2023-07-31T07:04:15;8.52;;;2.75;;
39020;SDS011;25188;51.958;5.842;2023-07-31T07:06:41;6.90;;;2.35;;
39020;SDS011;25188;51.958;5.842;2023-07-31T07:09:07;7.30;;;2.88;;
39020;SDS011;25188;51.958;5.842;2023-07-31T07:11:33;7.25;;;2.45;;
39020;SDS011;25188;51.958;5.842;2023-07-31T07:13:59;7.25;;;2.20;;
39020;SDS011;25188;51.958;5.842;2023-07-31T07:16:25;5.07;;;2.08;;
39020;SDS011;25188;51.958;5.842;2023-07-31T07:18:54;4.18;;;1.98;;
39020;SDS011;25188;51.958;5.842;2023-07-31T07:21:19;5.32;;;2.20;;
39020;SDS011;25188;51.958;5.842;2023-07-31T07:23:45;4.57;;;1.48;;
39020;SDS011;25188;51.958;5.842;2023-07-31T07:26:10;4.03;;;1.77;;
39020;SDS011;25188;51.958;5.842;2023-07-31T07:28:36;2.88;;;1.15;;
39020;SDS011;25188;51.958;5.842;2023-07-31T07:31:02;2.97;;;1.23;;
39020;SDS011;25188;51.958;5.842;2023-07-31T07:33:28;3.92;;;1.23;;
39020;SDS011;25188;51.958;5.842;2023-07-31T07:35:53;4.72;;;1.20;;
39020;SDS011;25188;51.958;5.842;2023-07-31T07:38:19;3.03;;;1.10;;
39020;SDS011;25188;51.958;5.842;2023-07-31T07:40:45;3.78;;;1.13;;
39020;SDS011;25188;51.958;5.842;2023-07-31T07:43:15;2.63;;;0.90;;
39020;SDS011;25188;51.958;5.842;2023-07-31T07:45:41;3.80;;;1.10;;
39020;SDS011;25188;51.958;5.842;2023-07-31T07:48:06;2.10;;;0.80;;
39020;SDS011;25188;51.958;5.842;2023-07-31T07:50:32;1.77;;;0.73;;
39020;SDS011;25188;51.958;5.842;2023-07-31T07:52:58;2.10;;;0.90;;
39020;SDS011;25188;51.958;5.842;2023-07-31T07:55:23;1.73;;;0.80;;
39020;SDS011;25188;51.958;5.842;2023-07-31T07:57:49;2.20;;;0.80;;
39020;SDS011;25188;51.958;5.842;2023-07-31T08:00:15;1.70;;;0.85;;
39020;SDS011;25188;51.958;5.842;2023-07-31T08:02:42;3.05;;;1.13;;
39020;SDS011;25188;51.958;5.842;2023-07-31T08:05:08;2.67;;;1.00;;
39020;SDS011;25188;51.958;5.842;2023-07-31T08:07:34;1.60;;;0.70;;
39020;SDS011;25188;51.958;5.842;2023-07-31T08:09:59;2.30;;;1.00;;
39020;SDS011;25188;51.958;5.842;2023-07-31T08:12:25;2.67;;;1.10;;
39020;SDS011;25188;51.958;5.842;2023-07-31T08:14:50;1.77;;;0.90;;
39020;SDS011;25188;51.958;5.842;2023-07-31T08:17:17;2.67;;;1.00;;
39020;SDS011;25188;51.958;5.842;2023-07-31T08:19:42;3.70;;;1.10;;
39020;SDS011;25188;51.958;5.842;2023-07-31T08:22:09;3.28;;;1.30;;
39020;SDS011;25188;51.958;5.842;2023-07-31T08:24:34;2.38;;;1.17;;
39020;SDS011;25188;51.958;5.842;2023-07-31T08:27:00;2.53;;;1.05;;
39020;SDS011;25188;51.958;5.842;2023-07-31T08:29:25;2.65;;;1.42;;
39020;SDS011;25188;51.958;5.842;2023-07-31T08:31:51;4.00;;;1.63;;
39020;SDS011;25188;51.958;5.842;2023-07-31T08:34:17;2.47;;;1.23;;
39020;SDS011;25188;51.958;5.842;2023-07-31T08:36:42;3.05;;;1.73;;
39020;SDS011;25188;51.958;5.842;2023-07-31T08:39:08;3.63;;;1.95;;
39020;SDS011;25188;51.958;5.842;2023-07-31T08:41:37;2.85;;;1.77;;
39020;SDS011;25188;51.958;5.842;2023-07-31T08:44:04;3.60;;;1.63;;
39020;SDS011;25188;51.958;5.842;2023-07-31T08:46:30;3.60;;;1.95;;
39020;SDS011;25188;51.958;5.842;2023-07-31T08:48:58;3.95;;;2.05;;
39020;SDS011;25188;51.958;5.842;2023-07-31T08:51:24;3.33;;;2.08;;
39020;SDS011;25188;51.958;5.842;2023-07-31T08:53:50;4.82;;;2.50;;
39020;SDS011;25188;51.958;5.842;2023-07-31T08:56:17;3.22;;;2.10;;
39020;SDS011;25188;51.958;5.842;2023-07-31T08:58:43;3.53;;;2.35;;
39020;SDS011;25188;51.958;5.842;2023-07-31T09:01:10;4.15;;;1.92;;
39020;SDS011;25188;51.958;5.842;2023-07-31T09:03:36;4.95;;;2.58;;
39020;SDS011;25188;51.958;5.842;2023-07-31T09:06:03;4.38;;;2.35;;
39020;SDS011;25188;51.958;5.842;2023-07-31T09:08:31;4.15;;;2.30;;
39020;SDS011;25188;51.958;5.842;2023-07-31T09:10:59;4.38;;;2.40;;
39020;SDS011;25188;51.958;5.842;2023-07-31T09:13:29;3.33;;;2.35;;
39020;SDS011;25188;51.958;5.842;2023-07-31T09:15:56;4.40;;;2.90;;
39020;SDS011;25188;51.958;5.842;2023-07-31T09:18:22;4.50;;;2.55;;
39020;SDS011;25188;51.958;5.842;2023-07-31T09:21:04;4.53;;;2.60;;
39020;SDS011;25188;51.958;5.842;2023-07-31T09:23:40;4.78;;;2.92;;
39020;SDS011;25188;51.958;5.842;2023-07-31T09:26:07;3.83;;;2.47;;
39020;SDS011;25188;51.958;5.842;2023-07-31T09:28:32;5.25;;;2.88;;
39020;SDS011;25188;51.958;5.842;2023-07-31T09:30:58;7.25;;;3.72;;
39020;SDS011;25188;51.958;5.842;2023-07-31T09:33:23;6.32;;;3.90;;
39020;SDS011;25188;51.958;5.842;2023-07-31T09:35:49;6.72;;;3.40;;
39020;SDS011;25188;51.958;5.842;2023-07-31T09:38:15;6.53;;;4.35;;
39020;SDS011;25188;51.958;5.842;2023-07-31T09:40:42;7.85;;;4.80;;
39020;SDS011;25188;51.958;5.842;2023-07-31T09:43:13;8.30;;;4.70;;
39020;SDS011;25188;51.958;5.842;2023-07-31T09:45:43;6.93;;;4.45;;
39020;SDS011;25188;51.958;5.842;2023-07-31T09:48:10;7.55;;;4.55;;
39020;SDS011;25188;51.958;5.842;2023-07-31T09:50:38;7.85;;;4.75;;
39020;SDS011;25188;51.958;5.842;2023-07-31T09:53:05;8.52;;;4.88;;
39020;SDS011;25188;51.958;5.842;2023-07-31T09:55:31;8.02;;;5.90;;
39020;SDS011;25188;51.958;5.842;2023-07-31T09:57:58;7.93;;;5.60;;
39020;SDS011;25188;51.958;5.842;2023-07-31T10:00:24;8.18;;;5.10;;
39020;SDS011;25188;51.958;5.842;2023-07-31T10:02:52;8.32;;;5.07;;
39020;SDS011;25188;51.958;5.842;2023-07-31T10:05:19;8.52;;;4.78;;
39020;SDS011;25188;51.958;5.842;2023-07-31T10:07:51;10.10;;;5.93;;
39020;SDS011;25188;51.958;5.842;2023-07-31T10:10:20;9.60;;;5.00;;
39020;SDS011;25188;51.958;5.842;2023-07-31T10:12:47;5.75;;;4.47;;
39020;SDS011;25188;51.958;5.842;2023-07-31T10:15:15;8.38;;;5.32;;
39020;SDS011;25188;51.958;5.842;2023-07-31T10:17:41;7.82;;;5.78;;
39020;SDS011;25188;51.958;5.842;2023-07-31T10:20:07;7.72;;;5.50;;
39020;SDS011;25188;51.958;5.842;2023-07-31T10:22:34;7.18;;;4.57;;
39020;SDS011;25188;51.958;5.842;2023-07-31T10:24:59;8.75;;;4.70;;
39020;SDS011;25188;51.958;5.842;2023-07-31T10:27:27;9.77;;;5.47;;
39020;SDS011;25188;51.958;5.842;2023-07-31T10:29:54;7.40;;;4.35;;
39020;SDS011;25188;51.958;5.842;2023-07-31T10:32:21;8.40;;;5.00;;
39020;SDS011;25188;51.958;5.842;2023-07-31T10:34:49;7.60;;;5.28;;
39020;SDS011;25188;51.958;5.842;2023-07-31T10:37:20;6.70;;;4.50;;
39020;SDS011;25188;51.958;5.842;2023-07-31T10:40:05;7.07;;;4.30;;
39020;SDS011;25188;51.958;5.842;2023-07-31T10:42:51;7.53;;;4.93;;
39020;SDS011;25188;51.958;5.842;2023-07-31T10:48:05;8.98;;;5.53;;
39020;SDS011;25188;51.958;5.842;2023-07-31T10:50:37;7.50;;;4.55;;
39020;SDS011;25188;51.958;5.842;2023-07-31T10:53:11;8.27;;;4.55;;
39020;SDS011;25188;51.958;5.842;2023-07-31T10:56:07;7.82;;;4.75;;
39020;SDS011;25188;51.958;5.842;2023-07-31T10:58:34;9.98;;;5.30;;
39020;SDS011;25188;51.958;5.842;2023-07-31T11:01:02;9.73;;;5.00;;
39020;SDS011;25188;51.958;5.842;2023-07-31T11:03:41;9.45;;;4.45;;
39020;SDS011;25188;51.958;5.842;2023-07-31T11:06:10;7.28;;;4.30;;
39020;SDS011;25188;51.958;5.842;2023-07-31T11:08:40;9.25;;;4.55;;
39020;SDS011;25188;51.958;5.842;2023-07-31T11:11:08;9.27;;;4.88;;
39020;SDS011;25188;51.958;5.842;2023-07-31T11:13:48;6.32;;;4.18;;
39020;SDS011;25188;51.958;5.842;2023-07-31T11:16:14;7.30;;;4.38;;
39020;SDS011;25188;51.958;5.842;2023-07-31T11:18:44;7.47;;;3.75;;
39020;SDS011;25188;51.958;5.842;2023-07-31T11:21:16;8.50;;;3.83;;
39020;SDS011;25188;51.958;5.842;2023-07-31T11:23:50;7.53;;;4.82;;
39020;SDS011;25188;51.958;5.842;2023-07-31T11:28:43;8.60;;;4.63;;
39020;SDS011;25188;51.958;5.842;2023-07-31T11:31:12;6.50;;;4.05;;
39020;SDS011;25188;51.958;5.842;2023-07-31T11:33:37;8.05;;;4.45;;
39020;SDS011;25188;51.958;5.842;2023-07-31T11:36:03;10.80;;;4.97;;
39020;SDS011;25188;51.958;5.842;2023-07-31T11:38:32;8.43;;;4.25;;
39020;SDS011;25188;51.958;5.842;2023-07-31T11:41:00;5.20;;;3.47;;
39020;SDS011;25188;51.958;5.842;2023-07-31T11:43:32;6.47;;;3.72;;
39020;SDS011;25188;51.958;5.842;2023-07-31T11:45:59;7.82;;;4.25;;
39020;SDS011;25188;51.958;5.842;2023-07-31T11:48:29;5.57;;;3.28;;
39020;SDS011;25188;51.958;5.842;2023-07-31T11:51:01;9.32;;;3.88;;
39020;SDS011;25188;51.958;5.842;2023-07-31T11:53:31;5.40;;;3.80;;
39020;SDS011;25188;51.958;5.842;2023-07-31T11:56:01;6.28;;;3.20;;
39020;SDS011;25188;51.958;5.842;2023-07-31T11:58:30;5.57;;;2.67;;
39020;SDS011;25188;51.958;5.842;2023-07-31T12:00:59;5.28;;;3.05;;
39020;SDS011;25188;51.958;5.842;2023-07-31T12:03:25;5.43;;;3.65;;
39020;SDS011;25188;51.958;5.842;2023-07-31T12:05:52;7.95;;;3.05;;
39020;SDS011;25188;51.958;5.842;2023-07-31T12:08:18;6.97;;;3.60;;
39020;SDS011;25188;51.958;5.842;2023-07-31T12:10:46;6.75;;;3.08;;
39020;SDS011;25188;51.958;5.842;2023-07-31T12:13:22;6.50;;;3.05;;
39020;SDS011;25188;51.958;5.842;2023-07-31T12:15:54;4.82;;;2.72;;
39020;SDS011;25188;51.958;5.842;2023-07-31T12:18:22;8.55;;;3.22;;
39020;SDS011;25188;51.958;5.842;2023-07-31T12:20:54;6.20;;;3.28;;
39020;SDS011;25188;51.958;5.842;2023-07-31T12:23:21;5.68;;;2.97;;
39020;SDS011;25188;51.958;5.842;2023-07-31T12:28:45;5.25;;;3.33;;
39020;SDS011;25188;51.958;5.842;2023-07-31T12:31:15;7.45;;;3.55;;
39020;SDS011;25188;51.958;5.842;2023-07-31T12:33:42;7.90;;;3.65;;
39020;SDS011;25188;51.958;5.842;2023-07-31T12:36:15;7.03;;;3.88;;
39020;SDS011;25188;51.958;5.842;2023-07-31T12:38:49;6.35;;;3.08;;
39020;SDS011;25188;51.958;5.842;2023-07-31T12:41:16;5.05;;;3.20;;
39020;SDS011;25188;51.958;5.842;2023-07-31T12:43:43;5.05;;;3.45;;
39020;SDS011;25188;51.958;5.842;2023-07-31T12:46:09;5.20;;;3.60;;
39020;SDS011;25188;51.958;5.842;2023-07-31T12:48:36;6.18;;;4.50;;
39020;SDS011;25188;51.958;5.842;2023-07-31T12:51:03;7.70;;;4.15;;
39020;SDS011;25188;51.958;5.842;2023-07-31T12:53:29;9.13;;;4.93;;
39020;SDS011;25188;51.958;5.842;2023-07-31T12:55:55;6.07;;;3.53;;
39020;SDS011;25188;51.958;5.842;2023-07-31T12:58:21;7.47;;;4.90;;
39020;SDS011;25188;51.958;5.842;2023-07-31T13:00:47;9.32;;;4.32;;
39020;SDS011;25188;51.958;5.842;2023-07-31T13:03:13;6.82;;;4.53;;
39020;SDS011;25188;51.958;5.842;2023-07-31T13:05:39;9.15;;;4.75;;
39020;SDS011;25188;51.958;5.842;2023-07-31T13:08:04;7.30;;;4.88;;
39020;SDS011;25188;51.958;5.842;2023-07-31T13:10:30;6.53;;;4.38;;
39020;SDS011;25188;51.958;5.842;2023-07-31T13:12:56;6.97;;;3.75;;
39020;SDS011;25188;51.958;5.842;2023-07-31T13:15:21;6.97;;;4.38;;
39020;SDS011;25188;51.958;5.842;2023-07-31T13:17:47;7.70;;;4.13;;
39020;SDS011;25188;51.958;5.842;2023-07-31T13:20:13;7.57;;;4.10;;
39020;SDS011;25188;51.958;5.842;2023-07-31T13:22:38;7.13;;;4.85;;
39020;SDS011;25188;51.958;5.842;2023-07-31T13:25:04;10.02;;;4.68;;
39020;SDS011;25188;51.958;5.842;2023-07-31T13:27:31;6.20;;;4.18;;
39020;SDS011;25188;51.958;5.842;2023-07-31T13:29:56;7.43;;;3.97;;
39020;SDS011;25188;51.958;5.842;2023-07-31T13:32:23;7.53;;;3.88;;
39020;SDS011;25188;51.958;5.842;2023-07-31T13:34:49;6.40;;;3.63;;
39020;SDS011;25188;51.958;5.842;2023-07-31T13:37:15;6.25;;;4.35;;
39020;SDS011;25188;51.958;5.842;2023-07-31T13:39:41;4.80;;;3.05;;
39020;SDS011;25188;51.958;5.842;2023-07-31T13:42:07;7.80;;;3.40;;
39020;SDS011;25188;51.958;5.842;2023-07-31T13:44:37;5.05;;;3.25;;
39020;SDS011;25188;51.958;5.842;2023-07-31T13:47:04;6.88;;;3.75;;
39020;SDS011;25188;51.958;5.842;2023-07-31T13:49:29;8.18;;;3.83;;
39020;SDS011;25188;51.958;5.842;2023-07-31T13:51:55;10.07;;;3.55;;
39020;SDS011;25188;51.958;5.842;2023-07-31T13:54:24;5.90;;;3.67;;
39020;SDS011;25188;51.958;5.842;2023-07-31T13:56:53;7.18;;;3.58;;
39020;SDS011;25188;51.958;5.842;2023-07-31T13:59:19;5.13;;;3.15;;
39020;SDS011;25188;51.958;5.842;2023-07-31T14:01:45;6.75;;;3.45;;
39020;SDS011;25188;51.958;5.842;2023-07-31T14:04:11;8.48;;;3.13;;
39020;SDS011;25188;51.958;5.842;2023-07-31T14:06:37;7.97;;;3.80;;
39020;SDS011;25188;51.958;5.842;2023-07-31T14:09:03;10.23;;;4.70;;
39020;SDS011;25188;51.958;5.842;2023-07-31T14:11:30;9.65;;;4.53;;
39020;SDS011;25188;51.958;5.842;2023-07-31T14:13:56;8.13;;;4.63;;
39020;SDS011;25188;51.958;5.842;2023-07-31T14:16:22;5.45;;;3.17;;
39020;SDS011;25188;51.958;5.842;2023-07-31T14:18:48;8.85;;;4.28;;
39020;SDS011;25188;51.958;5.842;2023-07-31T14:21:14;9.98;;;4.93;;
39020;SDS011;25188;51.958;5.842;2023-07-31T14:23:40;9.63;;;4.93;;
39020;SDS011;25188;51.958;5.842;2023-07-31T14:26:06;12.50;;;4.72;;
39020;SDS011;25188;51.958;5.842;2023-07-31T14:28:32;11.15;;;5.63;;
39020;SDS011;25188;51.958;5.842;2023-07-31T14:30:57;10.60;;;4.45;;
39020;SDS011;25188;51.958;5.842;2023-07-31T14:33:23;10.13;;;4.57;;
39020;SDS011;25188;51.958;5.842;2023-07-31T14:35:49;11.90;;;5.65;;
39020;SDS011;25188;51.958;5.842;2023-07-31T14:38:14;12.38;;;5.75;;
39020;SDS011;25188;51.958;5.842;2023-07-31T14:40:41;8.25;;;5.47;;
39020;SDS011;25188;51.958;5.842;2023-07-31T14:43:06;8.50;;;5.38;;
39020;SDS011;25188;51.958;5.842;2023-07-31T14:45:32;7.28;;;4.47;;
39020;SDS011;25188;51.958;5.842;2023-07-31T14:47:58;8.70;;;4.65;;
39020;SDS011;25188;51.958;5.842;2023-07-31T14:50:23;9.52;;;4.47;;
39020;SDS011;25188;51.958;5.842;2023-07-31T14:52:50;12.23;;;4.63;;